Fort Wayne, Indiana
Current Conditions -  °F | °C
As of 12:54 AM on Tuesday 21 Oct 2014 (Local Time) from KFWA Reporting Station
Broken Clouds Broken Clouds  
Wind Chill: 11°   Ceiling: 7000
Heat Index: 11°   Visibility: 10mi
Dew Point:   Wind: 7mph
Humidity: 77%   Direction: 290°WNW
Pressure: 29.93"   Gusts: NA
Location:  41.08°N, 85.1°W
Report Text: KFWA 210454Z 29006KT 10SM FEW050 BKN070 11/07 A2993 RMK AO2 SLP137 T01060067 401670072
Loading
Personal Weather Stations






























Interactive Weather Map
Tropical Storm Tracking
New forecast layout! Learn more

10-Day Weather Forecast

Advertisements
Track Severe Weather on mobile